sensor_id;sensor_type;location;lat;lon;timestamp;temperature;humidity
5358;DHT22;2702;51.014;7.170;2023-04-15T00:01:28;8.90;99.90
5358;DHT22;2702;51.014;7.170;2023-04-15T00:03:54;8.90;99.90
5358;DHT22;2702;51.014;7.170;2023-04-15T00:06:21;8.90;99.90
5358;DHT22;2702;51.014;7.170;2023-04-15T00:08:47;8.80;99.90
5358;DHT22;2702;51.014;7.170;2023-04-15T00:11:15;8.80;99.90
5358;DHT22;2702;51.014;7.170;2023-04-15T00:13:42;8.70;99.90
5358;DHT22;2702;51.014;7.170;2023-04-15T00:16:09;8.70;99.90
5358;DHT22;2702;51.014;7.170;2023-04-15T00:18:35;8.70;99.90
5358;DHT22;2702;51.014;7.170;2023-04-15T00:21:02;8.70;99.90
5358;DHT22;2702;51.014;7.170;2023-04-15T00:23:29;8.60;99.90
5358;DHT22;2702;51.014;7.170;2023-04-15T00:25:55;8.60;99.90
5358;DHT22;2702;51.014;7.170;2023-04-15T00:28:21;8.60;99.90
5358;DHT22;2702;51.014;7.170;2023-04-15T00:30:47;8.60;99.90
5358;DHT22;2702;51.014;7.170;2023-04-15T00:33:14;8.60;99.90
5358;DHT22;2702;51.014;7.170;2023-04-15T00:35:41;8.60;99.90
5358;DHT22;2702;51.014;7.170;2023-04-15T00:38:07;8.50;99.90
5358;DHT22;2702;51.014;7.170;2023-04-15T00:40:33;8.30;99.90
5358;DHT22;2702;51.014;7.170;2023-04-15T00:43:00;8.30;99.90
5358;DHT22;2702;51.014;7.170;2023-04-15T00:45:26;8.30;99.90
5358;DHT22;2702;51.014;7.170;2023-04-15T00:47:55;8.30;99.90
5358;DHT22;2702;51.014;7.170;2023-04-15T00:50:21;8.30;99.90
5358;DHT22;2702;51.014;7.170;2023-04-15T00:52:47;8.30;99.90
5358;DHT22;2702;51.014;7.170;2023-04-15T00:55:13;8.30;99.90
5358;DHT22;2702;51.014;7.170;2023-04-15T00:57:40;8.30;99.90
5358;DHT22;2702;51.014;7.170;2023-04-15T01:00:06;8.20;99.90
5358;DHT22;2702;51.014;7.170;2023-04-15T01:02:34;8.20;99.90
5358;DHT22;2702;51.014;7.170;2023-04-15T01:05:01;8.20;99.90
5358;DHT22;2702;51.014;7.170;2023-04-15T01:07:27;8.20;99.90
5358;DHT22;2702;51.014;7.170;2023-04-15T01:09:52;8.20;99.90
5358;DHT22;2702;51.014;7.170;2023-04-15T01:12:19;8.10;99.90
5358;DHT22;2702;51.014;7.170;2023-04-15T01:14:45;8.10;99.90
5358;DHT22;2702;51.014;7.170;2023-04-15T01:17:11;8.10;99.90
5358;DHT22;2702;51.014;7.170;2023-04-15T01:19:38;8.10;99.90
5358;DHT22;2702;51.014;7.170;2023-04-15T01:22:04;8.10;99.90
5358;DHT22;2702;51.014;7.170;2023-04-15T01:24:31;8.10;99.90
5358;DHT22;2702;51.014;7.170;2023-04-15T01:26:57;8.10;99.90
5358;DHT22;2702;51.014;7.170;2023-04-15T01:29:23;8.00;99.90
5358;DHT22;2702;51.014;7.170;2023-04-15T01:31:51;7.90;99.90
5358;DHT22;2702;51.014;7.170;2023-04-15T01:34:18;7.90;99.90
5358;DHT22;2702;51.014;7.170;2023-04-15T01:36:44;7.90;99.90
5358;DHT22;2702;51.014;7.170;2023-04-15T01:39:11;7.80;99.90
5358;DHT22;2702;51.014;7.170;2023-04-15T01:41:37;7.80;99.90
5358;DHT22;2702;51.014;7.170;2023-04-15T01:44:03;7.90;99.90
5358;DHT22;2702;51.014;7.170;2023-04-15T01:46:29;7.90;99.90
5358;DHT22;2702;51.014;7.170;2023-04-15T01:48:55;7.90;99.90
5358;DHT22;2702;51.014;7.170;2023-04-15T01:51:21;7.90;99.90
5358;DHT22;2702;51.014;7.170;2023-04-15T01:53:46;7.90;99.90
5358;DHT22;2702;51.014;7.170;2023-04-15T01:56:12;7.90;99.90
5358;DHT22;2702;51.014;7.170;2023-04-15T01:58:38;7.90;99.90
5358;DHT22;2702;51.014;7.170;2023-04-15T02:01:05;7.90;99.90
5358;DHT22;2702;51.014;7.170;2023-04-15T02:03:31;7.90;99.90
5358;DHT22;2702;51.014;7.170;2023-04-15T02:05:57;7.80;99.90
5358;DHT22;2702;51.014;7.170;2023-04-15T02:08:23;7.80;99.90
5358;DHT22;2702;51.014;7.170;2023-04-15T02:10:49;7.80;99.90
5358;DHT22;2702;51.014;7.170;2023-04-15T02:13:15;7.70;99.90
5358;DHT22;2702;51.014;7.170;2023-04-15T02:15:47;7.70;99.90
5358;DHT22;2702;51.014;7.170;2023-04-15T02:18:14;7.70;99.90
5358;DHT22;2702;51.014;7.170;2023-04-15T02:20:40;7.70;99.90
5358;DHT22;2702;51.014;7.170;2023-04-15T02:23:06;7.70;99.90
5358;DHT22;2702;51.014;7.170;2023-04-15T02:25:33;7.60;99.90
5358;DHT22;2702;51.014;7.170;2023-04-15T02:27:59;7.50;99.90
5358;DHT22;2702;51.014;7.170;2023-04-15T02:30:25;7.50;99.90
5358;DHT22;2702;51.014;7.170;2023-04-15T02:32:51;7.50;99.90
5358;DHT22;2702;51.014;7.170;2023-04-15T02:35:17;7.50;99.90
5358;DHT22;2702;51.014;7.170;2023-04-15T02:37:44;7.50;99.90
5358;DHT22;2702;51.014;7.170;2023-04-15T02:40:11;7.50;99.90
5358;DHT22;2702;51.014;7.170;2023-04-15T02:42:41;7.50;99.90
5358;DHT22;2702;51.014;7.170;2023-04-15T02:45:09;7.50;99.90
5358;DHT22;2702;51.014;7.170;2023-04-15T02:47:37;7.40;99.90
5358;DHT22;2702;51.014;7.170;2023-04-15T02:50:10;7.30;99.90
5358;DHT22;2702;51.014;7.170;2023-04-15T02:52:41;7.30;99.90
5358;DHT22;2702;51.014;7.170;2023-04-15T02:55:07;7.20;99.90
5358;DHT22;2702;51.014;7.170;2023-04-15T02:57:34;7.20;99.90
5358;DHT22;2702;51.014;7.170;2023-04-15T03:00:03;7.20;99.90
5358;DHT22;2702;51.014;7.170;2023-04-15T03:02:34;7.30;99.90
5358;DHT22;2702;51.014;7.170;2023-04-15T03:05:00;7.20;99.90
5358;DHT22;2702;51.014;7.170;2023-04-15T03:07:26;7.30;99.90
5358;DHT22;2702;51.014;7.170;2023-04-15T03:09:52;7.30;99.90
5358;DHT22;2702;51.014;7.170;2023-04-15T03:12:18;7.20;99.90
5358;DHT22;2702;51.014;7.170;2023-04-15T03:14:44;7.30;99.90
5358;DHT22;2702;51.014;7.170;2023-04-15T03:17:10;7.30;99.90
5358;DHT22;2702;51.014;7.170;2023-04-15T03:19:36;7.30;99.90
5358;DHT22;2702;51.014;7.170;2023-04-15T03:22:02;7.40;99.90
5358;DHT22;2702;51.014;7.170;2023-04-15T03:24:28;7.30;99.90
5358;DHT22;2702;51.014;7.170;2023-04-15T03:26:56;7.40;99.90
5358;DHT22;2702;51.014;7.170;2023-04-15T03:29:22;7.40;99.90
5358;DHT22;2702;51.014;7.170;2023-04-15T03:31:48;7.30;99.90
5358;DHT22;2702;51.014;7.170;2023-04-15T03:34:14;7.30;99.90
5358;DHT22;2702;51.014;7.170;2023-04-15T03:36:40;7.30;99.90
5358;DHT22;2702;51.014;7.170;2023-04-15T03:39:06;7.40;99.90
5358;DHT22;2702;51.014;7.170;2023-04-15T03:41:32;7.40;99.90
5358;DHT22;2702;51.014;7.170;2023-04-15T03:43:58;7.30;99.90
5358;DHT22;2702;51.014;7.170;2023-04-15T03:46:24;7.40;99.90
5358;DHT22;2702;51.014;7.170;2023-04-15T03:48:50;7.40;99.90
5358;DHT22;2702;51.014;7.170;2023-04-15T03:51:16;7.30;99.90
5358;DHT22;2702;51.014;7.170;2023-04-15T03:53:42;7.30;99.90
5358;DHT22;2702;51.014;7.170;2023-04-15T03:56:07;7.30;99.90
5358;DHT22;2702;51.014;7.170;2023-04-15T03:58:33;7.30;99.90
5358;DHT22;2702;51.014;7.170;2023-04-15T04:00:59;7.30;99.90
5358;DHT22;2702;51.014;7.170;2023-04-15T04:03:25;7.30;99.90
5358;DHT22;2702;51.014;7.170;2023-04-15T04:05:51;7.30;99.90
5358;DHT22;2702;51.014;7.170;2023-04-15T04:08:17;7.40;99.90
5358;DHT22;2702;51.014;7.170;2023-04-15T04:10:44;7.40;99.90
5358;DHT22;2702;51.014;7.170;2023-04-15T04:13:10;7.40;99.90
5358;DHT22;2702;51.014;7.170;2023-04-15T04:15:36;7.40;99.90
5358;DHT22;2702;51.014;7.170;2023-04-15T04:18:01;7.40;99.90
5358;DHT22;2702;51.014;7.170;2023-04-15T04:20:28;7.30;99.90
5358;DHT22;2702;51.014;7.170;2023-04-15T04:22:56;7.30;99.90
5358;DHT22;2702;51.014;7.170;2023-04-15T04:25:22;7.40;99.90
5358;DHT22;2702;51.014;7.170;2023-04-15T04:27:49;7.40;99.90
5358;DHT22;2702;51.014;7.170;2023-04-15T04:30:15;7.40;99.90
5358;DHT22;2702;51.014;7.170;2023-04-15T04:32:41;7.40;99.90
5358;DHT22;2702;51.014;7.170;2023-04-15T04:35:07;7.40;99.90
5358;DHT22;2702;51.014;7.170;2023-04-15T04:37:33;7.40;99.90
5358;DHT22;2702;51.014;7.170;2023-04-15T04:39:59;7.40;99.90
5358;DHT22;2702;51.014;7.170;2023-04-15T04:42:25;7.40;99.90
5358;DHT22;2702;51.014;7.170;2023-04-15T04:44:51;7.40;99.90
5358;DHT22;2702;51.014;7.170;2023-04-15T04:47:17;7.30;99.90
5358;DHT22;2702;51.014;7.170;2023-04-15T04:49:43;7.40;99.90
5358;DHT22;2702;51.014;7.170;2023-04-15T04:52:09;7.40;99.90
5358;DHT22;2702;51.014;7.170;2023-04-15T04:54:35;7.30;99.90
5358;DHT22;2702;51.014;7.170;2023-04-15T04:57:02;7.40;99.90
5358;DHT22;2702;51.014;7.170;2023-04-15T04:59:27;7.30;99.90
5358;DHT22;2702;51.014;7.170;2023-04-15T05:01:53;7.10;99.90
5358;DHT22;2702;51.014;7.170;2023-04-15T05:04:19;7.10;99.90
5358;DHT22;2702;51.014;7.170;2023-04-15T05:06:45;7.10;99.90
5358;DHT22;2702;51.014;7.170;2023-04-15T05:09:11;7.00;99.90
5358;DHT22;2702;51.014;7.170;2023-04-15T05:11:37;6.90;99.90
5358;DHT22;2702;51.014;7.170;2023-04-15T05:14:03;6.90;99.90
5358;DHT22;2702;51.014;7.170;2023-04-15T05:16:28;7.00;99.90
5358;DHT22;2702;51.014;7.170;2023-04-15T05:18:54;6.90;99.90
5358;DHT22;2702;51.014;7.170;2023-04-15T05:21:20;6.90;99.90
5358;DHT22;2702;51.014;7.170;2023-04-15T05:23:46;6.90;99.90
5358;DHT22;2702;51.014;7.170;2023-04-15T05:26:12;7.00;99.90
5358;DHT22;2702;51.014;7.170;2023-04-15T05:28:38;7.00;99.90
5358;DHT22;2702;51.014;7.170;2023-04-15T05:31:04;6.90;99.90
5358;DHT22;2702;51.014;7.170;2023-04-15T05:33:30;6.90;99.90
5358;DHT22;2702;51.014;7.170;2023-04-15T05:35:56;6.90;99.90
5358;DHT22;2702;51.014;7.170;2023-04-15T05:38:22;6.90;99.90
5358;DHT22;2702;51.014;7.170;2023-04-15T05:40:49;7.00;99.90
5358;DHT22;2702;51.014;7.170;2023-04-15T05:43:16;7.10;99.90
5358;DHT22;2702;51.014;7.170;2023-04-15T05:45:47;7.10;99.90
5358;DHT22;2702;51.014;7.170;2023-04-15T05:48:29;7.20;99.90
5358;DHT22;2702;51.014;7.170;2023-04-15T05:51:01;7.30;99.90
5358;DHT22;2702;51.014;7.170;2023-04-15T05:53:27;7.40;99.90
5358;DHT22;2702;51.014;7.170;2023-04-15T05:55:52;7.50;99.90
5358;DHT22;2702;51.014;7.170;2023-04-15T05:58:18;7.50;99.90
5358;DHT22;2702;51.014;7.170;2023-04-15T06:00:44;7.60;99.90
5358;DHT22;2702;51.014;7.170;2023-04-15T06:03:11;7.70;99.90
5358;DHT22;2702;51.014;7.170;2023-04-15T06:05:37;7.70;99.90
5358;DHT22;2702;51.014;7.170;2023-04-15T06:08:03;7.80;99.90
5358;DHT22;2702;51.014;7.170;2023-04-15T06:10:29;7.90;99.90
5358;DHT22;2702;51.014;7.170;2023-04-15T06:12:55;8.00;99.90
5358;DHT22;2702;51.014;7.170;2023-04-15T06:15:21;8.10;99.90
5358;DHT22;2702;51.014;7.170;2023-04-15T06:17:47;8.20;99.90
5358;DHT22;2702;51.014;7.170;2023-04-15T06:20:13;8.30;99.90
5358;DHT22;2702;51.014;7.170;2023-04-15T06:22:39;8.40;99.90
5358;DHT22;2702;51.014;7.170;2023-04-15T06:25:06;8.40;99.90
5358;DHT22;2702;51.014;7.170;2023-04-15T06:27:33;8.60;99.90
5358;DHT22;2702;51.014;7.170;2023-04-15T06:29:59;8.70;99.90
5358;DHT22;2702;51.014;7.170;2023-04-15T06:32:25;8.80;99.90
5358;DHT22;2702;51.014;7.170;2023-04-15T06:34:51;8.90;99.90
5358;DHT22;2702;51.014;7.170;2023-04-15T06:37:17;9.00;99.90
5358;DHT22;2702;51.014;7.170;2023-04-15T06:39:43;9.10;99.90
5358;DHT22;2702;51.014;7.170;2023-04-15T06:42:10;9.20;99.90
5358;DHT22;2702;51.014;7.170;2023-04-15T06:44:36;9.20;99.90
5358;DHT22;2702;51.014;7.170;2023-04-15T06:47:03;9.30;99.90
5358;DHT22;2702;51.014;7.170;2023-04-15T06:49:28;9.40;99.90
5358;DHT22;2702;51.014;7.170;2023-04-15T06:51:54;9.40;99.90
5358;DHT22;2702;51.014;7.170;2023-04-15T06:54:21;9.40;99.90
5358;DHT22;2702;51.014;7.170;2023-04-15T06:56:47;9.40;99.90
5358;DHT22;2702;51.014;7.170;2023-04-15T06:59:13;9.40;99.90
5358;DHT22;2702;51.014;7.170;2023-04-15T07:01:42;9.40;99.90
5358;DHT22;2702;51.014;7.170;2023-04-15T07:04:07;9.40;99.90
5358;DHT22;2702;51.014;7.170;2023-04-15T07:06:33;9.40;99.90
5358;DHT22;2702;51.014;7.170;2023-04-15T07:09:01;9.30;99.90
5358;DHT22;2702;51.014;7.170;2023-04-15T07:11:27;9.30;99.90
5358;DHT22;2702;51.014;7.170;2023-04-15T07:13:53;9.30;99.90
5358;DHT22;2702;51.014;7.170;2023-04-15T07:16:19;9.40;99.90
5358;DHT22;2702;51.014;7.170;2023-04-15T07:18:45;9.50;99.90
5358;DHT22;2702;51.014;7.170;2023-04-15T07:21:13;9.50;99.90
5358;DHT22;2702;51.014;7.170;2023-04-15T07:23:39;9.40;99.90
5358;DHT22;2702;51.014;7.170;2023-04-15T07:26:05;9.50;99.90
5358;DHT22;2702;51.014;7.170;2023-04-15T07:28:31;9.50;99.90
5358;DHT22;2702;51.014;7.170;2023-04-15T07:30:56;9.50;99.90
5358;DHT22;2702;51.014;7.170;2023-04-15T07:33:22;9.60;99.90
5358;DHT22;2702;51.014;7.170;2023-04-15T07:35:48;9.60;99.90
5358;DHT22;2702;51.014;7.170;2023-04-15T07:38:14;9.70;99.90
5358;DHT22;2702;51.014;7.170;2023-04-15T07:40:40;9.70;99.90
5358;DHT22;2702;51.014;7.170;2023-04-15T07:43:07;9.80;99.90
5358;DHT22;2702;51.014;7.170;2023-04-15T07:45:33;9.80;99.90
5358;DHT22;2702;51.014;7.170;2023-04-15T07:48:01;9.90;99.90
5358;DHT22;2702;51.014;7.170;2023-04-15T07:50:28;10.10;99.90
5358;DHT22;2702;51.014;7.170;2023-04-15T07:52:54;10.10;99.90
5358;DHT22;2702;51.014;7.170;2023-04-15T07:55:20;10.10;99.90
5358;DHT22;2702;51.014;7.170;2023-04-15T07:57:49;10.20;99.90
5358;DHT22;2702;51.014;7.170;2023-04-15T08:00:15;10.10;99.90
5358;DHT22;2702;51.014;7.170;2023-04-15T08:02:41;10.10;99.90
5358;DHT22;2702;51.014;7.170;2023-04-15T08:05:09;10.00;99.90
5358;DHT22;2702;51.014;7.170;2023-04-15T08:07:38;9.90;99.90
5358;DHT22;2702;51.014;7.170;2023-04-15T08:10:04;9.90;99.90
5358;DHT22;2702;51.014;7.170;2023-04-15T08:12:31;9.90;99.90
5358;DHT22;2702;51.014;7.170;2023-04-15T08:14:57;9.80;99.90
5358;DHT22;2702;51.014;7.170;2023-04-15T08:17:23;9.80;99.90
5358;DHT22;2702;51.014;7.170;2023-04-15T08:19:49;9.80;99.90
5358;DHT22;2702;51.014;7.170;2023-04-15T08:22:16;9.90;99.90
5358;DHT22;2702;51.014;7.170;2023-04-15T08:24:42;9.70;99.90
5358;DHT22;2702;51.014;7.170;2023-04-15T08:27:08;9.80;99.90
5358;DHT22;2702;51.014;7.170;2023-04-15T08:29:34;9.90;99.90
5358;DHT22;2702;51.014;7.170;2023-04-15T08:32:00;10.10;99.90
5358;DHT22;2702;51.014;7.170;2023-04-15T08:34:27;10.20;99.90
5358;DHT22;2702;51.014;7.170;2023-04-15T08:36:53;10.30;99.90
5358;DHT22;2702;51.014;7.170;2023-04-15T08:39:19;10.40;99.90
5358;DHT22;2702;51.014;7.170;2023-04-15T08:41:47;10.60;99.90
5358;DHT22;2702;51.014;7.170;2023-04-15T08:44:17;10.60;99.90
5358;DHT22;2702;51.014;7.170;2023-04-15T08:46:43;10.50;99.90
5358;DHT22;2702;51.014;7.170;2023-04-15T08:49:10;10.60;99.90
5358;DHT22;2702;51.014;7.170;2023-04-15T08:51:39;10.60;99.90
5358;DHT22;2702;51.014;7.170;2023-04-15T08:54:07;10.70;99.90
5358;DHT22;2702;51.014;7.170;2023-04-15T08:56:33;10.70;99.90
5358;DHT22;2702;51.014;7.170;2023-04-15T08:59:00;10.60;99.90
5358;DHT22;2702;51.014;7.170;2023-04-15T09:01:28;10.60;99.90
5358;DHT22;2702;51.014;7.170;2023-04-15T09:03:55;10.60;99.90
5358;DHT22;2702;51.014;7.170;2023-04-15T09:06:22;10.60;99.90
5358;DHT22;2702;51.014;7.170;2023-04-15T09:08:49;10.80;99.90
5358;DHT22;2702;51.014;7.170;2023-04-15T09:11:15;11.00;99.90
5358;DHT22;2702;51.014;7.170;2023-04-15T09:13:42;10.90;99.90
5358;DHT22;2702;51.014;7.170;2023-04-15T09:16:08;10.90;99.90
5358;DHT22;2702;51.014;7.170;2023-04-15T09:18:37;11.00;99.90
5358;DHT22;2702;51.014;7.170;2023-04-15T09:21:10;11.20;99.90
5358;DHT22;2702;51.014;7.170;2023-04-15T09:23:37;11.30;99.90
5358;DHT22;2702;51.014;7.170;2023-04-15T09:26:04;11.20;99.90
5358;DHT22;2702;51.014;7.170;2023-04-15T09:28:31;11.30;99.90
5358;DHT22;2702;51.014;7.170;2023-04-15T09:30:57;11.30;99.90
5358;DHT22;2702;51.014;7.170;2023-04-15T09:33:24;11.40;99.90
5358;DHT22;2702;51.014;7.170;2023-04-15T09:36:01;11.50;99.90
5358;DHT22;2702;51.014;7.170;2023-04-15T09:38:29;11.50;99.90
5358;DHT22;2702;51.014;7.170;2023-04-15T09:40:56;11.60;99.90
5358;DHT22;2702;51.014;7.170;2023-04-15T09:43:35;11.70;99.90
5358;DHT22;2702;51.014;7.170;2023-04-15T09:46:03;11.80;99.90
5358;DHT22;2702;51.014;7.170;2023-04-15T09:48:30;11.70;99.90
5358;DHT22;2702;51.014;7.170;2023-04-15T09:51:00;11.80;99.90
5358;DHT22;2702;51.014;7.170;2023-04-15T09:53:27;12.00;99.90
5358;DHT22;2702;51.014;7.170;2023-04-15T09:55:55;12.00;99.90
5358;DHT22;2702;51.014;7.170;2023-04-15T09:58:29;12.20;99.90
5358;DHT22;2702;51.014;7.170;2023-04-15T10:00:57;12.30;99.90
5358;DHT22;2702;51.014;7.170;2023-04-15T10:05:55;11.80;99.90
5358;DHT22;2702;51.014;7.170;2023-04-15T10:08:29;11.80;99.90
5358;DHT22;2702;51.014;7.170;2023-04-15T10:10:56;11.40;99.90
5358;DHT22;2702;51.014;7.170;2023-04-15T10:13:28;11.40;99.90
5358;DHT22;2702;51.014;7.170;2023-04-15T10:16:04;11.40;99.90
5358;DHT22;2702;51.014;7.170;2023-04-15T10:18:34;11.30;99.90
5358;DHT22;2702;51.014;7.170;2023-04-15T10:21:01;11.40;99.90
5358;DHT22;2702;51.014;7.170;2023-04-15T10:23:27;11.40;99.90
5358;DHT22;2702;51.014;7.170;2023-04-15T10:25:53;11.60;99.90
5358;DHT22;2702;51.014;7.170;2023-04-15T10:28:20;11.80;99.90
5358;DHT22;2702;51.014;7.170;2023-04-15T10:30:49;11.90;99.90
5358;DHT22;2702;51.014;7.170;2023-04-15T10:33:20;12.10;99.90
5358;DHT22;2702;51.014;7.170;2023-04-15T10:35:51;11.80;99.90
5358;DHT22;2702;51.014;7.170;2023-04-15T10:38:44;11.70;99.90
5358;DHT22;2702;51.014;7.170;2023-04-15T10:41:20;11.50;99.90
5358;DHT22;2702;51.014;7.170;2023-04-15T10:46:34;11.50;99.90
5358;DHT22;2702;51.014;7.170;2023-04-15T10:49:11;11.60;99.90
5358;DHT22;2702;51.014;7.170;2023-04-15T10:51:39;11.70;99.90
5358;DHT22;2702;51.014;7.170;2023-04-15T10:59:38;11.70;99.90
5358;DHT22;2702;51.014;7.170;2023-04-15T11:02:17;11.50;99.90
5358;DHT22;2702;51.014;7.170;2023-04-15T11:04:58;11.10;99.90
5358;DHT22;2702;51.014;7.170;2023-04-15T11:12:55;10.90;99.90
5358;DHT22;2702;51.014;7.170;2023-04-15T11:15:41;10.90;99.90
5358;DHT22;2702;51.014;7.170;2023-04-15T11:18:22;10.70;99.90
5358;DHT22;2702;51.014;7.170;2023-04-15T11:20:56;10.70;99.90
5358;DHT22;2702;51.014;7.170;2023-04-15T11:23:32;10.70;99.90
5358;DHT22;2702;51.014;7.170;2023-04-15T11:26:00;11.00;99.90
5358;DHT22;2702;51.014;7.170;2023-04-15T11:28:28;11.20;99.90
5358;DHT22;2702;51.014;7.170;2023-04-15T11:30:55;11.40;99.90
5358;DHT22;2702;51.014;7.170;2023-04-15T11:33:22;11.50;99.90
5358;DHT22;2702;51.014;7.170;2023-04-15T11:35:49;11.30;99.90
5358;DHT22;2702;51.014;7.170;2023-04-15T11:38:15;10.90;99.90
5358;DHT22;2702;51.014;7.170;2023-04-15T11:40:42;10.70;99.90
5358;DHT22;2702;51.014;7.170;2023-04-15T11:43:13;10.60;99.90
5358;DHT22;2702;51.014;7.170;2023-04-15T11:45:51;10.50;99.90
5358;DHT22;2702;51.014;7.170;2023-04-15T11:48:18;10.40;99.90
5358;DHT22;2702;51.014;7.170;2023-04-15T11:50:44;10.30;99.90
5358;DHT22;2702;51.014;7.170;2023-04-15T11:53:12;10.20;99.90
5358;DHT22;2702;51.014;7.170;2023-04-15T11:55:42;10.20;99.90
5358;DHT22;2702;51.014;7.170;2023-04-15T11:58:20;10.20;99.90
5358;DHT22;2702;51.014;7.170;2023-04-15T12:00:57;10.20;99.90
5358;DHT22;2702;51.014;7.170;2023-04-15T12:03:28;10.20;99.90
5358;DHT22;2702;51.014;7.170;2023-04-15T12:06:11;10.10;99.90
5358;DHT22;2702;51.014;7.170;2023-04-15T12:08:57;10.20;99.90
5358;DHT22;2702;51.014;7.170;2023-04-15T12:13:58;10.00;99.90
5358;DHT22;2702;51.014;7.170;2023-04-15T12:16:26;9.90;99.90
5358;DHT22;2702;51.014;7.170;2023-04-15T12:18:55;9.80;99.90
5358;DHT22;2702;51.014;7.170;2023-04-15T12:21:22;9.90;99.90
5358;DHT22;2702;51.014;7.170;2023-04-15T12:23:53;9.80;99.90
5358;DHT22;2702;51.014;7.170;2023-04-15T12:26:27;9.90;99.90
5358;DHT22;2702;51.014;7.170;2023-04-15T12:29:14;9.90;99.90
5358;DHT22;2702;51.014;7.170;2023-04-15T12:31:52;9.80;99.90
5358;DHT22;2702;51.014;7.170;2023-04-15T12:34:25;9.80;99.90
5358;DHT22;2702;51.014;7.170;2023-04-15T12:36:53;9.80;99.90
5358;DHT22;2702;51.014;7.170;2023-04-15T12:39:23;9.70;99.90
5358;DHT22;2702;51.014;7.170;2023-04-15T12:41:50;9.60;99.90
5358;DHT22;2702;51.014;7.170;2023-04-15T12:44:16;9.50;99.90
5358;DHT22;2702;51.014;7.170;2023-04-15T12:46:42;9.50;99.90
5358;DHT22;2702;51.014;7.170;2023-04-15T12:49:08;9.40;99.90
5358;DHT22;2702;51.014;7.170;2023-04-15T12:51:34;9.30;99.90
5358;DHT22;2702;51.014;7.170;2023-04-15T12:54:00;9.40;99.90
5358;DHT22;2702;51.014;7.170;2023-04-15T12:56:26;9.50;99.90
5358;DHT22;2702;51.014;7.170;2023-04-15T12:58:52;9.40;99.90
5358;DHT22;2702;51.014;7.170;2023-04-15T13:01:18;9.50;99.90
5358;DHT22;2702;51.014;7.170;2023-04-15T13:03:44;9.50;99.90
5358;DHT22;2702;51.014;7.170;2023-04-15T13:06:10;9.60;99.90
5358;DHT22;2702;51.014;7.170;2023-04-15T13:08:36;9.60;99.90
5358;DHT22;2702;51.014;7.170;2023-04-15T13:11:02;9.60;99.90
5358;DHT22;2702;51.014;7.170;2023-04-15T13:13:28;9.60;99.90
5358;DHT22;2702;51.014;7.170;2023-04-15T13:15:57;9.70;99.90
5358;DHT22;2702;51.014;7.170;2023-04-15T13:18:22;9.70;99.90
5358;DHT22;2702;51.014;7.170;2023-04-15T13:20:49;9.80;99.90
5358;DHT22;2702;51.014;7.170;2023-04-15T13:23:15;9.70;99.90
5358;DHT22;2702;51.014;7.170;2023-04-15T13:25:42;9.70;99.90
5358;DHT22;2702;51.014;7.170;2023-04-15T13:28:10;9.70;99.90
5358;DHT22;2702;51.014;7.170;2023-04-15T13:30:37;9.60;99.90
5358;DHT22;2702;51.014;7.170;2023-04-15T13:33:04;9.60;99.90
5358;DHT22;2702;51.014;7.170;2023-04-15T13:35:31;9.70;99.90
5358;DHT22;2702;51.014;7.170;2023-04-15T13:37:57;9.70;99.90
5358;DHT22;2702;51.014;7.170;2023-04-15T13:40:23;9.60;99.90
5358;DHT22;2702;51.014;7.170;2023-04-15T13:42:50;9.50;99.90
5358;DHT22;2702;51.014;7.170;2023-04-15T13:45:18;9.30;99.90
5358;DHT22;2702;51.014;7.170;2023-04-15T13:47:44;9.20;99.90
5358;DHT22;2702;51.014;7.170;2023-04-15T13:50:10;9.20;99.90
5358;DHT22;2702;51.014;7.170;2023-04-15T13:52:36;9.30;99.90
5358;DHT22;2702;51.014;7.170;2023-04-15T13:55:02;9.40;99.90
5358;DHT22;2702;51.014;7.170;2023-04-15T13:57:28;9.50;99.90
5358;DHT22;2702;51.014;7.170;2023-04-15T13:59:56;9.40;99.90
5358;DHT22;2702;51.014;7.170;2023-04-15T14:02:22;9.40;99.90
5358;DHT22;2702;51.014;7.170;2023-04-15T14:04:48;9.20;99.90
5358;DHT22;2702;51.014;7.170;2023-04-15T14:07:14;9.10;99.90
5358;DHT22;2702;51.014;7.170;2023-04-15T14:09:41;9.10;99.90
5358;DHT22;2702;51.014;7.170;2023-04-15T14:12:07;9.00;99.90
5358;DHT22;2702;51.014;7.170;2023-04-15T14:14:33;9.10;99.90
5358;DHT22;2702;51.014;7.170;2023-04-15T14:16:59;8.80;99.90
5358;DHT22;2702;51.014;7.170;2023-04-15T14:19:25;8.70;99.90
5358;DHT22;2702;51.014;7.170;2023-04-15T14:21:51;8.90;99.90
5358;DHT22;2702;51.014;7.170;2023-04-15T14:24:17;8.70;99.90
5358;DHT22;2702;51.014;7.170;2023-04-15T14:26:43;8.80;99.90
5358;DHT22;2702;51.014;7.170;2023-04-15T14:29:09;9.00;99.90
5358;DHT22;2702;51.014;7.170;2023-04-15T14:31:36;9.10;99.90
5358;DHT22;2702;51.014;7.170;2023-04-15T14:34:02;9.20;99.90
5358;DHT22;2702;51.014;7.170;2023-04-15T14:36:28;9.20;99.90
5358;DHT22;2702;51.014;7.170;2023-04-15T14:38:54;9.30;99.90
5358;DHT22;2702;51.014;7.170;2023-04-15T14:41:20;9.30;99.90
5358;DHT22;2702;51.014;7.170;2023-04-15T14:43:47;9.30;99.90
5358;DHT22;2702;51.014;7.170;2023-04-15T14:46:12;9.20;99.90
5358;DHT22;2702;51.014;7.170;2023-04-15T14:48:39;9.10;99.90
5358;DHT22;2702;51.014;7.170;2023-04-15T14:51:05;9.10;99.90
5358;DHT22;2702;51.014;7.170;2023-04-15T14:53:32;9.10;99.90
5358;DHT22;2702;51.014;7.170;2023-04-15T14:55:58;9.20;99.90
5358;DHT22;2702;51.014;7.170;2023-04-15T14:58:24;9.20;99.90
5358;DHT22;2702;51.014;7.170;2023-04-15T15:00:50;9.30;99.90
5358;DHT22;2702;51.014;7.170;2023-04-15T15:03:16;9.20;99.90
5358;DHT22;2702;51.014;7.170;2023-04-15T15:05:43;9.20;99.90
5358;DHT22;2702;51.014;7.170;2023-04-15T15:08:09;9.10;99.90
5358;DHT22;2702;51.014;7.170;2023-04-15T15:10:36;9.00;99.90
5358;DHT22;2702;51.014;7.170;2023-04-15T15:13:04;9.10;99.90
5358;DHT22;2702;51.014;7.170;2023-04-15T15:15:30;9.20;99.90
5358;DHT22;2702;51.014;7.170;2023-04-15T15:17:56;9.10;99.90
5358;DHT22;2702;51.014;7.170;2023-04-15T15:20:23;9.10;99.90
5358;DHT22;2702;51.014;7.170;2023-04-15T15:22:49;9.00;99.90
5358;DHT22;2702;51.014;7.170;2023-04-15T15:25:15;9.00;99.90
5358;DHT22;2702;51.014;7.170;2023-04-15T15:27:41;9.00;99.90
5358;DHT22;2702;51.014;7.170;2023-04-15T15:30:07;9.00;99.90
5358;DHT22;2702;51.014;7.170;2023-04-15T15:32:33;9.00;99.90
5358;DHT22;2702;51.014;7.170;2023-04-15T15:34:59;9.00;99.90
5358;DHT22;2702;51.014;7.170;2023-04-15T15:37:25;9.00;99.90
5358;DHT22;2702;51.014;7.170;2023-04-15T15:39:52;8.90;99.90
5358;DHT22;2702;51.014;7.170;2023-04-15T15:42:18;8.80;99.90
5358;DHT22;2702;51.014;7.170;2023-04-15T15:44:44;8.90;99.90
5358;DHT22;2702;51.014;7.170;2023-04-15T15:47:11;8.80;99.90
5358;DHT22;2702;51.014;7.170;2023-04-15T15:49:36;8.70;99.90
5358;DHT22;2702;51.014;7.170;2023-04-15T15:52:02;8.80;99.90
5358;DHT22;2702;51.014;7.170;2023-04-15T15:54:28;8.90;99.90
5358;DHT22;2702;51.014;7.170;2023-04-15T15:56:54;8.90;99.90
5358;DHT22;2702;51.014;7.170;2023-04-15T15:59:23;9.00;99.90
5358;DHT22;2702;51.014;7.170;2023-04-15T16:01:50;8.90;99.90
5358;DHT22;2702;51.014;7.170;2023-04-15T16:04:16;8.70;99.90
5358;DHT22;2702;51.014;7.170;2023-04-15T16:06:42;8.70;99.90
5358;DHT22;2702;51.014;7.170;2023-04-15T16:09:09;8.60;99.90
5358;DHT22;2702;51.014;7.170;2023-04-15T16:11:35;8.50;99.90
5358;DHT22;2702;51.014;7.170;2023-04-15T16:14:01;8.40;99.90
5358;DHT22;2702;51.014;7.170;2023-04-15T16:16:27;8.50;99.90
5358;DHT22;2702;51.014;7.170;2023-04-15T16:18:55;8.50;99.90
5358;DHT22;2702;51.014;7.170;2023-04-15T16:21:22;8.40;99.90
5358;DHT22;2702;51.014;7.170;2023-04-15T16:23:49;8.30;99.90
5358;DHT22;2702;51.014;7.170;2023-04-15T16:26:15;8.40;99.90
5358;DHT22;2702;51.014;7.170;2023-04-15T16:28:41;8.30;99.90
5358;DHT22;2702;51.014;7.170;2023-04-15T16:31:09;8.20;99.90
5358;DHT22;2702;51.014;7.170;2023-04-15T16:33:35;8.20;99.90